Time;durP1;ratioP1;P1;durP2;ratioP2;P2;SDS_P1;SDS_P2;PMS_P1;PMS_P2;Temp;Humidity;BMP_temperature;BMP_pressure;BME280_temperature;BME280_humidity;BME280_pressure;Samples;Min_cycle;Max_cycle;Signal;HPM_P1;HPM_P2
2021/03/09 00:00:14;;;;;;;2.97;2.53;;;;;;;18.88;40.94;100728.55;;;;-61
2021/03/09 00:03:14;;;;;;;2.73;2.22;;;;;;;18.87;40.99;100725.27;;;;-58
2021/03/09 00:06:13;;;;;;;2.56;2.28;;;;;;;18.85;41.01;100724.19;;;;-57
2021/03/09 00:09:13;;;;;;;2.65;2.42;;;;;;;18.81;40.97;100725.52;;;;-58
2021/03/09 00:12:13;;;;;;;2.73;2.43;;;;;;;18.79;41.01;100723.70;;;;-58
2021/03/09 00:15:14;;;;;;;2.21;2.02;;;;;;;18.77;41.04;100723.64;;;;-58
2021/03/09 00:18:13;;;;;;;3.00;2.37;;;;;;;18.76;41.00;100724.42;;;;-56
2021/03/09 00:21:13;;;;;;;2.78;2.29;;;;;;;18.72;41.02;100725.13;;;;-58
2021/03/09 00:24:14;;;;;;;2.50;2.10;;;;;;;18.71;41.08;100723.06;;;;-57
2021/03/09 00:27:13;;;;;;;2.44;2.23;;;;;;;18.69;41.02;100726.45;;;;-57
2021/03/09 00:30:13;;;;;;;3.24;2.45;;;;;;;18.67;41.04;100727.07;;;;-57
2021/03/09 00:33:13;;;;;;;2.62;2.38;;;;;;;18.65;41.01;100723.80;;;;-58
2021/03/09 00:36:13;;;;;;;2.34;2.14;;;;;;;18.63;40.95;100723.52;;;;-57
2021/03/09 00:39:14;;;;;;;2.70;2.47;;;;;;;18.61;40.98;100719.52;;;;-58
2021/03/09 00:42:13;;;;;;;2.41;2.21;;;;;;;18.60;41.01;100722.20;;;;-58
2021/03/09 00:45:14;;;;;;;2.54;2.30;;;;;;;18.57;41.13;100723.88;;;;-58
2021/03/09 00:48:13;;;;;;;2.49;2.29;;;;;;;18.56;41.08;100721.57;;;;-57
2021/03/09 00:51:13;;;;;;;2.50;2.22;;;;;;;18.53;41.05;100717.72;;;;-58
2021/03/09 00:54:13;;;;;;;2.48;2.28;;;;;;;18.52;41.04;100719.08;;;;-58
2021/03/09 00:57:13;;;;;;;2.43;2.23;;;;;;;18.50;40.96;100717.18;;;;-57
2021/03/09 01:00:13;;;;;;;2.51;2.19;;;;;;;18.48;41.05;100711.06;;;;-58
2021/03/09 01:03:13;;;;;;;2.45;2.25;;;;;;;18.47;41.04;100706.56;;;;-57
2021/03/09 01:06:13;;;;;;;2.57;2.25;;;;;;;18.45;41.11;100709.89;;;;-58
2021/03/09 01:09:13;;;;;;;3.14;2.35;;;;;;;18.42;41.02;100710.48;;;;-57
2021/03/09 01:12:13;;;;;;;2.79;2.41;;;;;;;18.41;41.03;100709.52;;;;-58
2021/03/09 01:15:14;;;;;;;2.39;2.19;;;;;;;18.39;41.08;100711.27;;;;-58
2021/03/09 01:18:13;;;;;;;2.83;2.41;;;;;;;18.38;40.97;100710.42;;;;-57
2021/03/09 01:21:13;;;;;;;2.40;2.20;;;;;;;18.36;41.01;100708.28;;;;-58
2021/03/09 01:24:13;;;;;;;2.49;2.25;;;;;;;18.35;40.97;100708.61;;;;-58
2021/03/09 01:27:13;;;;;;;2.72;2.49;;;;;;;18.32;41.11;100702.05;;;;-58
2021/03/09 01:30:13;;;;;;;3.08;2.59;;;;;;;18.30;41.12;100694.72;;;;-59
2021/03/09 01:33:13;;;;;;;2.59;2.39;;;;;;;18.30;41.04;100690.66;;;;-60
2021/03/09 01:36:13;;;;;;;2.50;2.30;;;;;;;18.27;41.09;100688.61;;;;-60
2021/03/09 01:39:13;;;;;;;2.66;2.45;;;;;;;18.26;41.16;100685.81;;;;-60
2021/03/09 01:42:13;;;;;;;2.65;2.45;;;;;;;18.24;41.14;100684.11;;;;-61
2021/03/09 01:45:13;;;;;;;2.55;2.35;;;;;;;18.22;41.05;100681.48;;;;-62
2021/03/09 01:48:13;;;;;;;2.55;2.35;;;;;;;18.22;41.08;100673.42;;;;-61
2021/03/09 01:51:13;;;;;;;3.36;2.51;;;;;;;18.20;41.10;100672.13;;;;-60
2021/03/09 01:54:13;;;;;;;2.58;2.38;;;;;;;18.19;41.11;100671.53;;;;-61
2021/03/09 01:57:13;;;;;;;2.65;2.45;;;;;;;18.17;41.12;100669.71;;;;-52
2021/03/09 02:00:14;;;;;;;2.44;2.24;;;;;;;18.15;41.13;100665.88;;;;-50
2021/03/09 02:03:13;;;;;;;2.32;2.12;;;;;;;18.14;41.08;100659.62;;;;-50
2021/03/09 02:06:14;;;;;;;3.13;2.40;;;;;;;18.13;41.16;100657.48;;;;-50
2021/03/09 02:09:13;;;;;;;2.51;2.31;;;;;;;18.11;41.09;100654.29;;;;-58
2021/03/09 02:12:13;;;;;;;2.40;2.20;;;;;;;18.10;41.14;100653.89;;;;-57
2021/03/09 02:15:13;;;;;;;2.51;2.30;;;;;;;18.09;41.08;100654.09;;;;-57
2021/03/09 02:18:13;;;;;;;2.60;2.40;;;;;;;18.07;41.21;100649.84;;;;-56
2021/03/09 02:21:13;;;;;;;2.63;2.43;;;;;;;18.05;41.07;100648.84;;;;-58
2021/03/09 02:24:13;;;;;;;2.49;2.29;;;;;;;18.05;41.09;100650.47;;;;-61
2021/03/09 02:27:13;;;;;;;2.57;2.37;;;;;;;18.03;41.13;100644.06;;;;-60
2021/03/09 02:30:14;;;;;;;2.62;2.42;;;;;;;18.01;41.03;100641.48;;;;-61
2021/03/09 02:33:13;;;;;;;2.57;2.35;;;;;;;18.00;41.19;100647.16;;;;-60
2021/03/09 02:36:13;;;;;;;2.62;2.42;;;;;;;17.98;41.20;100639.18;;;;-60
2021/03/09 02:39:13;;;;;;;2.75;2.46;;;;;;;17.98;41.19;100636.34;;;;-62
2021/03/09 02:42:13;;;;;;;2.59;2.35;;;;;;;17.96;41.26;100634.53;;;;-49
2021/03/09 02:45:13;;;;;;;2.52;2.31;;;;;;;17.94;41.06;100633.36;;;;-49
2021/03/09 02:48:13;;;;;;;2.50;2.30;;;;;;;17.93;41.09;100631.98;;;;-62
2021/03/09 02:51:13;;;;;;;2.37;2.17;;;;;;;17.91;41.07;100628.38;;;;-60
2021/03/09 02:54:13;;;;;;;2.47;2.27;;;;;;;17.91;41.08;100629.73;;;;-62
2021/03/09 02:57:13;;;;;;;2.52;2.32;;;;;;;17.90;41.09;100628.35;;;;-62
2021/03/09 03:00:13;;;;;;;2.51;2.31;;;;;;;17.89;41.15;100627.70;;;;-61
2021/03/09 03:03:15;;;;;;;2.77;2.50;;;;;;;17.87;41.08;100627.75;;;;-61
2021/03/09 03:06:13;;;;;;;2.96;2.34;;;;;;;17.87;41.17;100629.38;;;;-52
2021/03/09 03:09:13;;;;;;;3.12;2.43;;;;;;;17.86;41.10;100624.80;;;;-52
2021/03/09 03:12:13;;;;;;;2.51;2.31;;;;;;;17.84;41.14;100627.20;;;;-50
2021/03/09 03:15:14;;;;;;;2.50;2.30;;;;;;;17.82;41.22;100624.54;;;;-56
2021/03/09 03:18:13;;;;;;;2.74;2.42;;;;;;;17.81;41.09;100620.48;;;;-58
2021/03/09 03:21:13;;;;;;;2.88;2.43;;;;;;;17.81;41.12;100622.92;;;;-58
2021/03/09 03:24:13;;;;;;;2.73;2.52;;;;;;;17.80;41.09;100620.13;;;;-56
2021/03/09 03:27:13;;;;;;;2.47;2.27;;;;;;;17.79;41.13;100622.32;;;;-58
2021/03/09 03:30:13;;;;;;;2.59;2.39;;;;;;;17.77;41.11;100620.42;;;;-56
2021/03/09 03:33:13;;;;;;;2.55;2.34;;;;;;;17.76;41.13;100621.48;;;;-58
2021/03/09 03:36:13;;;;;;;2.55;2.33;;;;;;;17.75;41.14;100623.23;;;;-58
2021/03/09 03:39:13;;;;;;;2.51;2.30;;;;;;;17.74;41.09;100624.69;;;;-56
2021/03/09 03:42:13;;;;;;;2.87;2.57;;;;;;;17.73;41.18;100621.98;;;;-51
2021/03/09 03:45:13;;;;;;;2.78;2.50;;;;;;;17.72;41.07;100627.45;;;;-52
2021/03/09 03:48:13;;;;;;;2.62;2.42;;;;;;;17.70;41.11;100626.56;;;;-52
2021/03/09 03:51:13;;;;;;;2.59;2.39;;;;;;;17.69;41.18;100621.50;;;;-52
2021/03/09 03:54:13;;;;;;;2.77;2.45;;;;;;;17.68;41.16;100619.56;;;;-52
2021/03/09 03:57:13;;;;;;;2.43;2.23;;;;;;;17.67;41.16;100619.05;;;;-52
2021/03/09 04:00:13;;;;;;;2.59;2.39;;;;;;;17.66;41.14;100616.41;;;;-52
2021/03/09 04:03:13;;;;;;;2.51;2.31;;;;;;;17.65;41.17;100616.82;;;;-52
2021/03/09 04:06:13;;;;;;;2.71;2.51;;;;;;;17.64;41.13;100615.44;;;;-52
2021/03/09 04:09:13;;;;;;;2.65;2.45;;;;;;;17.63;41.09;100615.57;;;;-52
2021/03/09 04:12:13;;;;;;;2.58;2.38;;;;;;;17.62;41.19;100617.27;;;;-50
2021/03/09 04:15:13;;;;;;;2.60;2.40;;;;;;;17.60;41.15;100610.75;;;;-50
2021/03/09 04:18:13;;;;;;;2.47;2.27;;;;;;;17.60;41.15;100611.56;;;;-50
2021/03/09 04:21:13;;;;;;;2.66;2.46;;;;;;;17.58;41.19;100608.69;;;;-50
2021/03/09 04:24:13;;;;;;;2.71;2.45;;;;;;;17.57;41.15;100610.13;;;;-52
2021/03/09 04:27:20;;;;;;;2.59;2.38;;;;;;;17.56;41.15;100605.98;;;;-52
2021/03/09 04:30:13;;;;;;;2.75;2.42;;;;;;;17.56;41.23;100606.80;;;;-52
2021/03/09 04:33:13;;;;;;;2.51;2.25;;;;;;;17.55;41.21;100601.01;;;;-50
2021/03/09 04:36:13;;;;;;;2.71;2.51;;;;;;;17.54;41.11;100601.01;;;;-52
2021/03/09 04:39:13;;;;;;;2.73;2.48;;;;;;;17.52;41.28;100595.79;;;;-51
2021/03/09 04:42:13;;;;;;;3.17;2.29;;;;;;;17.52;41.18;100597.98;;;;-52
2021/03/09 04:45:13;;;;;;;2.55;2.35;;;;;;;17.51;41.20;100596.89;;;;-52
2021/03/09 04:48:13;;;;;;;2.91;2.47;;;;;;;17.50;41.16;100597.86;;;;-52
2021/03/09 04:51:13;;;;;;;2.69;2.49;;;;;;;17.49;41.13;100598.31;;;;-50
2021/03/09 04:54:13;;;;;;;2.69;2.49;;;;;;;17.48;41.18;100598.88;;;;-50
2021/03/09 04:57:13;;;;;;;2.73;2.31;;;;;;;17.48;41.19;100597.74;;;;-50
2021/03/09 05:00:13;;;;;;;2.61;2.41;;;;;;;17.47;41.14;100601.55;;;;-50
2021/03/09 05:03:13;;;;;;;2.79;2.40;;;;;;;17.46;41.16;100598.11;;;;-50
2021/03/09 05:06:13;;;;;;;2.51;2.30;;;;;;;17.44;41.20;100598.64;;;;-60
2021/03/09 05:09:13;;;;;;;2.52;2.32;;;;;;;17.44;41.13;100599.95;;;;-61
2021/03/09 05:12:13;;;;;;;3.02;2.60;;;;;;;17.43;41.18;100597.84;;;;-62
2021/03/09 05:15:13;;;;;;;2.81;2.54;;;;;;;17.42;41.22;100593.34;;;;-52
2021/03/09 05:18:13;;;;;;;2.71;2.50;;;;;;;17.42;41.18;100595.53;;;;-51
2021/03/09 05:21:13;;;;;;;2.76;2.56;;;;;;;17.40;41.28;100593.47;;;;-52
2021/03/09 05:24:13;;;;;;;2.81;2.51;;;;;;;17.39;41.27;100594.45;;;;-51
2021/03/09 05:27:14;;;;;;;2.79;2.59;;;;;;;17.39;41.18;100598.17;;;;-51
2021/03/09 05:30:13;;;;;;;2.53;2.33;;;;;;;17.38;41.24;100598.46;;;;-52
2021/03/09 05:33:13;;;;;;;2.72;2.52;;;;;;;17.37;41.24;100600.45;;;;-52
2021/03/09 05:36:13;;;;;;;2.69;2.49;;;;;;;17.36;41.26;100602.72;;;;-61
2021/03/09 05:39:13;;;;;;;2.73;2.53;;;;;;;17.36;41.31;100600.28;;;;-61
2021/03/09 05:42:13;;;;;;;2.45;2.25;;;;;;;17.34;41.18;100601.88;;;;-61
2021/03/09 05:45:13;;;;;;;2.50;2.30;;;;;;;17.33;41.29;100600.58;;;;-50
2021/03/09 05:48:13;;;;;;;2.71;2.49;;;;;;;17.32;41.23;100599.97;;;;-50
2021/03/09 05:51:13;;;;;;;2.58;2.38;;;;;;;17.32;41.28;100600.05;;;;-50
2021/03/09 05:54:13;;;;;;;2.59;2.39;;;;;;;17.31;41.26;100601.16;;;;-50
2021/03/09 05:57:13;;;;;;;2.81;2.51;;;;;;;17.29;41.30;100605.77;;;;-50
2021/03/09 06:00:13;;;;;;;2.68;2.48;;;;;;;17.29;41.22;100612.25;;;;-50
2021/03/09 06:03:13;;;;;;;2.62;2.42;;;;;;;17.29;41.27;100614.44;;;;-49
2021/03/09 06:06:13;;;;;;;2.90;2.68;;;;;;;17.28;41.27;100620.39;;;;-49
2021/03/09 06:09:13;;;;;;;2.75;2.55;;;;;;;17.27;41.29;100615.61;;;;-49
2021/03/09 06:12:13;;;;;;;2.87;2.59;;;;;;;17.27;41.28;100617.31;;;;-50
2021/03/09 06:15:13;;;;;;;2.50;2.30;;;;;;;17.26;41.29;100625.57;;;;-49
2021/03/09 06:18:13;;;;;;;2.89;2.61;;;;;;;17.27;41.31;100620.07;;;;-50
2021/03/09 06:21:13;;;;;;;2.56;2.36;;;;;;;17.27;41.32;100613.27;;;;-57
2021/03/09 06:24:13;;;;;;;2.65;2.45;;;;;;;17.28;41.43;100621.53;;;;-51
2021/03/09 06:27:13;;;;;;;2.42;2.22;;;;;;;17.30;41.33;100622.13;;;;-52
2021/03/09 06:30:13;;;;;;;2.77;2.52;;;;;;;17.31;41.32;100618.03;;;;-52
2021/03/09 06:33:13;;;;;;;2.60;2.40;;;;;;;17.34;41.33;100619.13;;;;-52
2021/03/09 06:36:13;;;;;;;2.77;2.47;;;;;;;17.35;41.39;100615.27;;;;-51
2021/03/09 06:39:13;;;;;;;2.49;2.29;;;;;;;17.37;41.36;100616.53;;;;-52
2021/03/09 06:42:13;;;;;;;2.52;2.32;;;;;;;17.39;41.51;100618.67;;;;-51
2021/03/09 06:45:13;;;;;;;2.51;2.31;;;;;;;17.43;41.49;100620.92;;;;-51
2021/03/09 06:48:13;;;;;;;2.39;2.19;;;;;;;17.46;41.51;100620.56;;;;-52
2021/03/09 06:51:13;;;;;;;2.58;2.38;;;;;;;17.50;41.57;100623.14;;;;-51
2021/03/09 06:54:13;;;;;;;2.41;2.21;;;;;;;17.54;41.58;100623.29;;;;-51
2021/03/09 06:57:13;;;;;;;2.63;2.43;;;;;;;17.61;41.54;100623.55;;;;-52
2021/03/09 07:00:13;;;;;;;2.56;2.31;;;;;;;17.65;41.60;100628.48;;;;-50
2021/03/09 07:03:13;;;;;;;2.46;2.26;;;;;;;17.69;41.62;100632.77;;;;-50
2021/03/09 07:06:13;;;;;;;2.40;2.20;;;;;;;17.74;41.59;100635.76;;;;-50
2021/03/09 07:09:13;;;;;;;2.65;2.21;;;;;;;17.79;41.70;100642.42;;;;-50
2021/03/09 07:12:13;;;;;;;2.34;2.14;;;;;;;17.83;41.72;100637.82;;;;-49
2021/03/09 07:15:13;;;;;;;2.55;2.31;;;;;;;17.85;41.68;100639.72;;;;-51
2021/03/09 07:18:13;;;;;;;2.27;2.07;;;;;;;17.88;41.82;100640.88;;;;-49
2021/03/09 07:21:13;;;;;;;2.37;2.16;;;;;;;17.92;41.61;100643.22;;;;-50
2021/03/09 07:24:13;;;;;;;2.35;2.13;;;;;;;17.93;41.63;100645.49;;;;-50
2021/03/09 07:27:13;;;;;;;2.47;2.25;;;;;;;17.95;41.68;100648.15;;;;-50
2021/03/09 07:30:13;;;;;;;2.34;2.14;;;;;;;17.98;41.57;100650.78;;;;-50
2021/03/09 07:33:13;;;;;;;2.58;2.22;;;;;;;17.97;41.66;100649.16;;;;-51
2021/03/09 07:36:13;;;;;;;2.23;2.03;;;;;;;17.99;41.65;100654.21;;;;-49
2021/03/09 07:39:13;;;;;;;2.32;2.12;;;;;;;17.99;41.54;100649.02;;;;-49
2021/03/09 07:42:13;;;;;;;2.66;2.11;;;;;;;18.00;41.65;100654.21;;;;-50
2021/03/09 07:45:13;;;;;;;2.41;2.21;;;;;;;18.01;41.56;100654.13;;;;-49
2021/03/09 07:48:43;;;;;;;2.47;2.10;;;;;;;18.00;41.52;100655.19;;;;-50
2021/03/09 07:51:43;;;;;;;2.35;2.15;;;;;;;18.01;41.56;100654.37;;;;-49
2021/03/09 07:55:43;;;;;;;2.34;2.14;;;;;;;18.00;41.52;100653.97;;;;-49
2021/03/09 07:58:44;;;;;;;2.42;2.20;;;;;;;17.98;41.54;100652.40;;;;-50
2021/03/09 08:01:43;;;;;;;2.37;2.17;;;;;;;18.00;41.43;100654.94;;;;-50
2021/03/09 08:04:43;;;;;;;2.30;2.10;;;;;;;17.97;41.49;100651.83;;;;-50
2021/03/09 08:07:43;;;;;;;2.43;2.23;;;;;;;17.97;41.36;100653.37;;;;-49
2021/03/09 08:10:43;;;;;;;2.30;2.09;;;;;;;17.96;41.52;100656.66;;;;-50
2021/03/09 08:13:15;;;;;;;2.56;2.36;;;;;;;17.96;41.47;100659.42;;;;-49
2021/03/09 08:16:13;;;;;;;2.41;2.21;;;;;;;17.95;41.44;100662.50;;;;-49
2021/03/09 08:19:13;;;;;;;2.30;2.10;;;;;;;17.95;41.42;100662.80;;;;-49
2021/03/09 08:22:13;;;;;;;2.28;2.08;;;;;;;17.95;41.44;100665.47;;;;-50
2021/03/09 08:25:13;;;;;;;3.10;2.33;;;;;;;17.94;41.39;100664.25;;;;-49
2021/03/09 08:28:13;;;;;;;2.37;2.17;;;;;;;17.94;41.41;100661.09;;;;-49
2021/03/09 08:31:13;;;;;;;2.46;2.26;;;;;;;17.93;41.39;100664.41;;;;-49
2021/03/09 08:34:13;;;;;;;2.35;2.15;;;;;;;17.92;41.50;100663.73;;;;-49
2021/03/09 08:37:13;;;;;;;2.51;2.31;;;;;;;17.92;41.46;100666.16;;;;-49
2021/03/09 08:40:13;;;;;;;2.28;2.08;;;;;;;17.91;41.42;100668.27;;;;-49
2021/03/09 08:43:13;;;;;;;5.20;2.33;;;;;;;17.93;41.78;100666.69;;;;-54
2021/03/09 08:46:13;;;;;;;3.36;2.10;;;;;;;17.94;42.38;100662.80;;;;-54
2021/03/09 08:49:13;;;;;;;3.07;2.71;;;;;;;17.97;42.47;100661.93;;;;-58
2021/03/09 08:52:13;;;;;;;2.76;2.25;;;;;;;18.03;43.23;100664.33;;;;-57
2021/03/09 08:55:14;;;;;;;2.71;2.22;;;;;;;18.08;43.25;100661.31;;;;-56
2021/03/09 08:58:13;;;;;;;3.30;2.29;;;;;;;18.14;43.03;100658.33;;;;-55
2021/03/09 09:01:13;;;;;;;3.81;2.50;;;;;;;18.19;42.97;100658.63;;;;-53
2021/03/09 09:04:14;;;;;;;3.01;2.36;;;;;;;18.26;42.67;100655.56;;;;-51
2021/03/09 09:07:13;;;;;;;2.97;2.22;;;;;;;18.27;42.26;100655.19;;;;-51
2021/03/09 09:10:13;;;;;;;2.75;2.21;;;;;;;18.33;42.36;100653.65;;;;-53
2021/03/09 09:13:13;;;;;;;3.28;2.05;;;;;;;18.37;42.42;100653.95;;;;-57
2021/03/09 09:16:13;;;;;;;4.08;2.25;;;;;;;18.43;42.46;100652.82;;;;-54
2021/03/09 09:19:17;;;;;;;2.56;2.24;;;;;;;18.50;42.57;100647.30;;;;-51
2021/03/09 09:22:13;;;;;;;3.01;2.28;;;;;;;18.57;42.61;100651.15;;;;-53
2021/03/09 09:25:13;;;;;;;2.42;2.22;;;;;;;18.63;42.59;100649.98;;;;-55
2021/03/09 09:28:13;;;;;;;2.39;2.14;;;;;;;18.67;42.49;100652.30;;;;-48
2021/03/09 09:31:14;;;;;;;2.69;2.25;;;;;;;18.67;42.11;100653.84;;;;-49
2021/03/09 09:34:13;;;;;;;3.31;2.21;;;;;;;18.68;42.06;100650.80;;;;-52
2021/03/09 09:37:13;;;;;;;2.34;1.99;;;;;;;18.69;41.92;100649.98;;;;-51
2021/03/09 09:40:13;;;;;;;3.96;2.16;;;;;;;18.71;41.90;100652.20;;;;-53
2021/03/09 09:43:14;;;;;;;3.07;2.10;;;;;;;18.76;42.09;100649.89;;;;-53
2021/03/09 09:46:13;;;;;;;3.30;1.97;;;;;;;18.78;42.11;100648.13;;;;-52
2021/03/09 09:49:13;;;;;;;8.74;3.01;;;;;;;18.76;41.19;100646.92;;;;-48
2021/03/09 09:52:13;;;;;;;5.46;2.77;;;;;;;18.79;41.71;100646.00;;;;-53
2021/03/09 09:55:13;;;;;;;5.00;2.60;;;;;;;18.82;41.65;100645.94;;;;-51
2021/03/09 09:58:13;;;;;;;5.35;2.51;;;;;;;18.84;41.60;100644.75;;;;-50
2021/03/09 10:01:13;;;;;;;6.00;2.37;;;;;;;18.87;41.81;100643.50;;;;-55
2021/03/09 10:04:14;;;;;;;5.91;2.39;;;;;;;18.90;41.88;100642.38;;;;-49
2021/03/09 10:07:14;;;;;;;4.76;2.78;;;;;;;18.92;41.24;100646.95;;;;-45
2021/03/09 10:10:13;;;;;;;5.19;2.81;;;;;;;18.93;41.37;100643.73;;;;-45
2021/03/09 10:13:13;;;;;;;6.23;2.51;;;;;;;18.96;41.48;100646.19;;;;-50
2021/03/09 10:16:13;;;;;;;5.33;2.77;;;;;;;18.97;41.16;100647.19;;;;-58
2021/03/09 10:19:15;;;;;;;4.73;2.56;;;;;;;19.01;41.63;100647.48;;;;-63
2021/03/09 10:22:13;;;;;;;5.97;2.65;;;;;;;19.06;41.46;100647.53;;;;-62
2021/03/09 10:25:13;;;;;;;4.09;2.59;;;;;;;19.08;41.33;100650.06;;;;-61
2021/03/09 10:28:13;;;;;;;6.49;2.58;;;;;;;19.10;41.56;100645.30;;;;-57
2021/03/09 10:31:14;;;;;;;3.71;2.49;;;;;;;19.11;40.95;100642.94;;;;-58
2021/03/09 10:34:13;;;;;;;3.63;2.61;;;;;;;19.15;41.10;100640.30;;;;-61
2021/03/09 10:37:13;;;;;;;3.97;2.39;;;;;;;19.15;41.08;100641.72;;;;-61
2021/03/09 10:40:13;;;;;;;5.07;2.29;;;;;;;19.15;41.06;100642.17;;;;-61
2021/03/09 10:43:13;;;;;;;3.84;2.23;;;;;;;19.15;41.07;100640.90;;;;-60
2021/03/09 10:46:13;;;;;;;5.83;2.56;;;;;;;19.21;41.41;100637.12;;;;-64
2021/03/09 10:49:13;;;;;;;5.17;2.25;;;;;;;19.22;41.49;100636.98;;;;-58
2021/03/09 10:52:13;;;;;;;4.39;2.21;;;;;;;19.25;41.23;100637.16;;;;-59
2021/03/09 10:55:13;;;;;;;3.33;2.26;;;;;;;19.23;41.20;100638.27;;;;-59
2021/03/09 10:58:13;;;;;;;3.18;2.19;;;;;;;19.22;41.18;100635.19;;;;-59
2021/03/09 11:01:13;;;;;;;3.57;2.05;;;;;;;19.22;41.11;100635.68;;;;-59
2021/03/09 11:04:13;;;;;;;2.31;2.10;;;;;;;19.25;41.34;100630.74;;;;-57
2021/03/09 11:07:13;;;;;;;3.15;2.05;;;;;;;19.27;41.31;100628.08;;;;-60
2021/03/09 11:10:14;;;;;;;4.10;2.09;;;;;;;19.27;41.26;100627.75;;;;-57
2021/03/09 11:13:16;;;;;;;5.29;2.32;;;;;;;19.28;41.24;100629.56;;;;-61
2021/03/09 11:16:13;;;;;;;5.60;2.21;;;;;;;19.27;41.15;100625.41;;;;-61
2021/03/09 11:19:13;;;;;;;2.97;2.11;;;;;;;19.26;41.17;100622.23;;;;-62
2021/03/09 11:22:13;;;;;;;2.96;1.92;;;;;;;19.27;41.19;100622.48;;;;-61
2021/03/09 11:25:13;;;;;;;2.71;2.05;;;;;;;19.27;41.19;100621.66;;;;-61
2021/03/09 11:28:13;;;;;;;3.51;2.09;;;;;;;19.27;41.17;100619.23;;;;-61
2021/03/09 11:31:13;;;;;;;3.05;2.02;;;;;;;19.27;41.18;100619.39;;;;-61
2021/03/09 11:34:13;;;;;;;2.76;2.01;;;;;;;19.26;41.22;100615.57;;;;-61
2021/03/09 11:37:14;;;;;;;2.71;1.91;;;;;;;19.28;41.20;100618.41;;;;-60
2021/03/09 11:40:13;;;;;;;2.24;2.02;;;;;;;19.28;41.21;100618.11;;;;-61
2021/03/09 11:43:13;;;;;;;2.77;1.96;;;;;;;19.27;41.21;100607.93;;;;-60
2021/03/09 11:46:13;;;;;;;1.91;1.81;;;;;;;19.28;41.23;100610.47;;;;-61
2021/03/09 11:49:14;;;;;;;2.97;1.96;;;;;;;19.29;41.16;100601.04;;;;-61
2021/03/09 11:52:13;;;;;;;2.09;1.86;;;;;;;19.30;41.20;100596.98;;;;-61
2021/03/09 11:55:13;;;;;;;2.16;1.90;;;;;;;19.32;41.15;100601.71;;;;-61
2021/03/09 11:58:13;;;;;;;2.36;1.99;;;;;;;19.32;41.14;100598.00;;;;-60
2021/03/09 12:01:13;;;;;;;3.11;1.99;;;;;;;19.31;41.19;100590.98;;;;-62
2021/03/09 12:04:13;;;;;;;2.30;2.10;;;;;;;19.33;41.17;100588.00;;;;-61
2021/03/09 12:07:13;;;;;;;2.93;1.97;;;;;;;19.33;41.17;100585.89;;;;-55
2021/03/09 12:10:13;;;;;;;2.19;1.90;;;;;;;19.34;41.16;100592.22;;;;-55
2021/03/09 12:13:13;;;;;;;2.26;1.88;;;;;;;19.33;41.18;100585.64;;;;-55
2021/03/09 12:16:13;;;;;;;3.93;1.95;;;;;;;19.36;41.33;100581.44;;;;-55
2021/03/09 12:19:13;;;;;;;2.69;1.89;;;;;;;19.39;41.52;100577.08;;;;-52
2021/03/09 12:22:13;;;;;;;3.04;1.91;;;;;;;19.43;41.62;100573.14;;;;-57
2021/03/09 12:25:13;;;;;;;2.48;1.91;;;;;;;19.42;41.63;100568.64;;;;-53
2021/03/09 12:28:13;;;;;;;2.39;2.05;;;;;;;19.46;41.71;100565.75;;;;-59
2021/03/09 12:31:13;;;;;;;2.91;1.93;;;;;;;19.46;41.64;100561.36;;;;-56
2021/03/09 12:34:13;;;;;;;2.87;1.80;;;;;;;19.48;41.70;100556.83;;;;-53
2021/03/09 12:37:13;;;;;;;2.34;1.70;;;;;;;19.51;41.76;100556.22;;;;-56
2021/03/09 12:40:13;;;;;;;2.33;1.79;;;;;;;19.54;41.70;100545.98;;;;-53
2021/03/09 12:43:13;;;;;;;2.09;1.78;;;;;;;19.59;41.88;100544.01;;;;-60
2021/03/09 12:46:13;;;;;;;2.53;1.77;;;;;;;19.62;41.87;100543.61;;;;-60
2021/03/09 12:49:13;;;;;;;2.25;1.80;;;;;;;19.62;41.78;100541.41;;;;-60
2021/03/09 12:52:13;;;;;;;1.99;1.80;;;;;;;19.63;41.71;100540.70;;;;-55
2021/03/09 12:55:13;;;;;;;2.07;1.80;;;;;;;19.68;41.83;100539.34;;;;-60
2021/03/09 12:58:13;;;;;;;2.81;1.77;;;;;;;19.69;41.72;100533.19;;;;-64
2021/03/09 13:01:13;;;;;;;1.83;1.65;;;;;;;19.72;41.77;100530.62;;;;-61
2021/03/09 13:04:13;;;;;;;2.12;1.80;;;;;;;19.75;41.64;100528.77;;;;-61
2021/03/09 13:07:13;;;;;;;2.89;1.67;;;;;;;19.76;41.55;100524.80;;;;-52
2021/03/09 13:10:13;;;;;;;1.90;1.69;;;;;;;19.81;41.71;100521.48;;;;-58
2021/03/09 13:13:13;;;;;;;3.25;1.85;;;;;;;19.82;41.63;100521.31;;;;-54
2021/03/09 13:16:13;;;;;;;1.97;1.75;;;;;;;19.79;41.44;100517.56;;;;-55
2021/03/09 13:19:13;;;;;;;3.22;1.77;;;;;;;19.79;41.14;100512.44;;;;-57
2021/03/09 13:22:13;;;;;;;1.87;1.71;;;;;;;19.79;40.76;100511.46;;;;-58
2021/03/09 13:25:13;;;;;;;3.55;1.89;;;;;;;19.82;40.99;100509.55;;;;-59
2021/03/09 13:28:13;;;;;;;3.57;1.75;;;;;;;19.88;41.16;100503.89;;;;-61
2021/03/09 13:31:15;;;;;;;4.72;1.83;;;;;;;19.87;40.93;100505.73;;;;-64
2021/03/09 13:34:13;;;;;;;3.10;1.70;;;;;;;19.90;41.36;100508.45;;;;-65
2021/03/09 13:37:13;;;;;;;6.22;1.79;;;;;;;19.89;41.51;100510.14;;;;-58
2021/03/09 13:40:13;;;;;;;6.55;1.80;;;;;;;19.95;41.71;100505.38;;;;-57
2021/03/09 13:43:13;;;;;;;4.65;1.89;;;;;;;19.94;41.11;100502.11;;;;-60
2021/03/09 13:46:13;;;;;;;4.12;1.75;;;;;;;19.87;40.31;100496.22;;;;-60
2021/03/09 13:49:13;;;;;;;2.88;1.85;;;;;;;19.83;39.62;100496.28;;;;-60
2021/03/09 13:52:13;;;;;;;4.35;1.88;;;;;;;19.81;39.60;100487.81;;;;-59
2021/03/09 13:55:15;;;;;;;5.17;1.60;;;;;;;19.78;39.99;100490.25;;;;-55
2021/03/09 13:58:13;;;;;;;1.83;1.70;;;;;;;19.74;38.89;100487.87;;;;-67
2021/03/09 14:01:13;;;;;;;3.43;1.83;;;;;;;19.75;39.84;100492.90;;;;-53
2021/03/09 14:04:13;;;;;;;4.93;1.75;;;;;;;19.76;39.82;100491.05;;;;-65
2021/03/09 14:07:13;;;;;;;4.81;1.96;;;;;;;19.76;40.09;100488.28;;;;-59
2021/03/09 14:10:13;;;;;;;2.83;1.81;;;;;;;19.77;40.17;100487.39;;;;-63
2021/03/09 14:13:13;;;;;;;2.41;1.57;;;;;;;19.77;39.99;100487.13;;;;-65
2021/03/09 14:16:13;;;;;;;6.75;1.97;;;;;;;19.78;40.15;100483.42;;;;-57
2021/03/09 14:19:13;;;;;;;5.21;1.77;;;;;;;19.82;40.19;100481.41;;;;-57
2021/03/09 14:22:13;;;;;;;6.83;1.78;;;;;;;19.73;39.86;100479.80;;;;-57
2021/03/09 14:25:13;;;;;;;4.79;1.71;;;;;;;19.76;40.04;100484.22;;;;-46
2021/03/09 14:28:13;;;;;;;2.78;1.89;;;;;;;19.82;40.57;100486.94;;;;-51
2021/03/09 14:31:13;;;;;;;4.28;1.70;;;;;;;19.85;40.90;100481.41;;;;-48
2021/03/09 14:34:13;;;;;;;2.13;1.60;;;;;;;19.93;40.85;100483.09;;;;-51
2021/03/09 14:37:13;;;;;;;3.37;1.59;;;;;;;19.95;40.95;100487.00;;;;-49
2021/03/09 14:40:13;;;;;;;9.73;1.73;;;;;;;19.99;41.15;100480.02;;;;-45
2021/03/09 14:43:13;;;;;;;1.99;1.70;;;;;;;20.01;41.19;100483.12;;;;-53
2021/03/09 14:46:13;;;;;;;2.40;1.86;;;;;;;20.04;41.16;100481.01;;;;-44
2021/03/09 14:49:13;;;;;;;2.06;1.53;;;;;;;20.05;41.28;100484.04;;;;-47
2021/03/09 14:52:13;;;;;;;2.55;1.60;;;;;;;20.11;41.27;100487.16;;;;-52
2021/03/09 14:55:13;;;;;;;2.59;1.61;;;;;;;20.10;41.00;100484.70;;;;-51
2021/03/09 14:58:13;;;;;;;6.68;1.79;;;;;;;20.09;40.92;100486.41;;;;-53
2021/03/09 15:01:13;;;;;;;5.05;1.77;;;;;;;20.13;41.38;100483.83;;;;-53
2021/03/09 15:04:13;;;;;;;2.59;1.54;;;;;;;20.15;40.93;100482.27;;;;-52
2021/03/09 15:07:13;;;;;;;8.22;1.64;;;;;;;20.15;40.82;100481.64;;;;-51
2021/03/09 15:10:13;;;;;;;2.82;1.50;;;;;;;20.14;40.79;100484.06;;;;-51
2021/03/09 15:13:13;;;;;;;2.20;1.73;;;;;;;20.13;40.50;100482.45;;;;-52
2021/03/09 15:16:13;;;;;;;3.67;1.61;;;;;;;20.14;40.42;100487.08;;;;-52
2021/03/09 15:19:13;;;;;;;2.68;1.54;;;;;;;20.13;40.43;100485.43;;;;-51
2021/03/09 15:22:13;;;;;;;4.70;1.57;;;;;;;20.11;40.59;100486.34;;;;-54
2021/03/09 15:25:13;;;;;;;3.60;1.60;;;;;;;20.14;40.54;100479.67;;;;-56
2021/03/09 15:28:13;;;;;;;2.25;1.50;;;;;;;20.15;40.72;100481.94;;;;-57
2021/03/09 15:31:13;;;;;;;2.35;1.67;;;;;;;20.16;40.61;100479.52;;;;-54
2021/03/09 15:34:13;;;;;;;2.35;1.63;;;;;;;20.15;40.40;100476.59;;;;-59
2021/03/09 15:37:13;;;;;;;2.77;1.64;;;;;;;20.13;40.40;100477.08;;;;-59
2021/03/09 15:40:13;;;;;;;3.83;1.60;;;;;;;20.14;40.45;100476.25;;;;-61
2021/03/09 15:43:13;;;;;;;2.72;1.60;;;;;;;20.16;40.68;100475.94;;;;-59
2021/03/09 15:46:13;;;;;;;2.87;1.61;;;;;;;20.18;40.67;100473.09;;;;-62
2021/03/09 15:49:13;;;;;;;3.28;1.63;;;;;;;20.17;40.68;100475.14;;;;-55
2021/03/09 15:52:16;;;;;;;2.37;1.46;;;;;;;20.21;40.82;100474.97;;;;-59
2021/03/09 15:55:13;;;;;;;3.37;1.45;;;;;;;20.23;40.73;100473.03;;;;-51
2021/03/09 15:58:13;;;;;;;2.29;1.47;;;;;;;20.24;40.82;100474.02;;;;-54
2021/03/09 16:01:13;;;;;;;1.67;1.41;;;;;;;20.25;40.85;100473.84;;;;-53
2021/03/09 16:04:13;;;;;;;2.65;1.42;;;;;;;20.25;40.88;100473.69;;;;-52
2021/03/09 16:07:13;;;;;;;1.79;1.60;;;;;;;20.22;40.75;100472.71;;;;-59
2021/03/09 16:10:13;;;;;;;1.61;1.46;;;;;;;20.23;40.86;100472.54;;;;-51
2021/03/09 16:13:13;;;;;;;2.69;1.59;;;;;;;20.24;40.87;100475.31;;;;-55
2021/03/09 16:16:13;;;;;;;2.92;1.56;;;;;;;20.23;40.72;100470.25;;;;-54
2021/03/09 16:19:13;;;;;;;1.73;1.54;;;;;;;20.23;40.81;100472.86;;;;-53
2021/03/09 16:22:13;;;;;;;2.33;1.46;;;;;;;20.26;40.79;100470.84;;;;-60
2021/03/09 16:25:13;;;;;;;3.46;1.42;;;;;;;20.30;40.87;100474.69;;;;-54
2021/03/09 16:28:13;;;;;;;3.70;1.82;;;;;;;20.33;40.84;100480.55;;;;-58
2021/03/09 16:31:13;;;;;;;1.87;1.61;;;;;;;20.34;40.81;100475.44;;;;-57
2021/03/09 16:34:13;;;;;;;3.19;1.63;;;;;;;20.35;40.90;100474.28;;;;-60
2021/03/09 16:37:13;;;;;;;1.67;1.41;;;;;;;20.35;40.96;100480.06;;;;-51
2021/03/09 16:40:13;;;;;;;2.34;1.69;;;;;;;20.36;40.95;100485.45;;;;-62
2021/03/09 16:43:13;;;;;;;3.73;1.57;;;;;;;20.39;40.92;100488.79;;;;-53